Shirahamamaru — JG4872 — position and weather

sailwx.info

Track history (hours):
 
Tides and Currents Weather Stations Pressure Air Temp Water Temp Dewpoint Dewpoint Depression Visibility Wind Speed Wind Dir Waves Ship Positions

Shirahamamaru

Last reported at 2015-May-03 23:33 UTC. Time now 2015-May-03 23:56 UTC.
Position N 35°13' E 139°45'.

Length 79 m; draft 3.2 m.

Type: Passenger vessel. MMSI: 431000239.

Date/timePositionNaut miles runAvg speedWind from/ knotsBaromVisibWave heightAir tempDewpointWater temp
2015-May-03 23:33N 35°13' E 139°45'1 1.2
2015-May-03 22:33N 35°12' E 139°46'1 0.9
2015-May-03 21:33N 35°12' E 139°45'1 0.2
2015-May-03 13:34N 35°13' E 139°43'2 2.4
2015-May-03 12:33N 35°12' E 139°46'2 2.4
2015-May-03 11:33N 35°11' E 139°48'5 5.2
2015-May-03 10:33N 35°13' E 139°43'6 5.9
2015-May-03 09:33N 35°10' E 139°49'6 5.9
2015-May-03 08:33N 35°13' E 139°43'6 5.9
2015-May-03 07:33N 35°10' E 139°49'6 5.9
2015-May-03 06:33N 35°13' E 139°43'6 5.8
2015-May-03 05:33N 35°10' E 139°49'6 5.6
2015-May-03 04:33N 35°13' E 139°43'5 5.0
2015-May-03 03:33N 35°11' E 139°49'5 4.8
2015-May-03 02:33N 35°13' E 139°44'4 4.3
2015-May-03 01:33N 35°11' E 139°48'4 4.4
2015-May-03 00:32N 35°13' E 139°43'3 2.6
2015-May-02 23:33N 35°12' E 139°46'2 1.7
2015-May-02 22:33N 35°13' E 139°44'2 2.4
2015-May-02 21:33N 35°12' E 139°47'1 0.1
2015-May-02 10:34N 35°12' E 139°46'2 2.2
2015-May-02 09:34N 35°11' E 139°48'4 4.0
2015-May-02 08:33N 35°13' E 139°44'5 4.8
2015-May-02 07:34N 35°10' E 139°49'5 5.1
2015-May-02 06:33N 35°13' E 139°44'3 3.0
2015-May-02 05:33N 35°12' E 139°47'2 2.1
2015-May-02 04:33N 35°13' E 139°45'3 3.0
2015-May-02 03:33N 35°11' E 139°48'4 3.9
2015-May-02 02:33N 35°13' E 139°44'4 4.1
2015-May-02 01:33N 35°11' E 139°48'4 4.2
2015-May-02 00:34N 35°13' E 139°44'2 2.4
2015-May-01 23:33N 35°11' E 139°46'3 3.0
2015-May-01 22:33N 35°10' E 139°49'5 5.0
2015-May-01 21:34N 35°13' E 139°44'1 0.1
2015-May-01 11:11N 35°13' E 139°43'6 8.9
2015-May-01 10:33N 35°10' E 139°49'3 2.7
2015-May-01 09:33N 35°12' E 139°46'1 0.9
2015-May-01 08:33N 35°12' E 139°47'2 2.0
2015-May-01 07:33N 35°13' E 139°45'2 2.0
2015-May-01 06:33N 35°12' E 139°47'2 2.3
2015-May-01 05:33N 35°13' E 139°45'1 1.3
2015-May-01 04:33N 35°12' E 139°46'0 0.5
2015-May-01 03:33N 35°12' E 139°46'1 1.4
2015-May-01 02:33N 35°11' E 139°47'2 2.3
2015-May-01 01:33N 35°13' E 139°45'2 2.2
2015-May-01 00:33N 35°12' E 139°47'2 2.3
2015-Apr-30 23:33N 35°13' E 139°45'1 1.3
2015-Apr-30 22:33N 35°12' E 139°46'1 1.2
2015-Apr-30 21:33N 35°12' E 139°45'2 0.2
2015-Apr-30 11:13N 35°13' E 139°43'6 8.7
2015-Apr-30 10:33N 35°10' E 139°49'3 3.2
2015-Apr-30 09:33N 35°12' E 139°46'1 1.1
2015-Apr-30 08:33N 35°11' E 139°47'2 2.0
2015-Apr-30 07:33N 35°13' E 139°45'2 2.0
2015-Apr-30 06:33N 35°12' E 139°47'2 2.1
2015-Apr-30 05:33N 35°13' E 139°45'1 1.2
2015-Apr-30 04:33N 35°12' E 139°46'0 0.2
2015-Apr-30 03:34N 35°12' E 139°46'1 1.2
2015-Apr-30 02:33N 35°11' E 139°47'2 2.4
2015-Apr-30 01:33N 35°13' E 139°45'2 2.3
2015-Apr-30 00:33N 35°12' E 139°47'2 2.2
2015-Apr-29 23:33N 35°13' E 139°45'1 1.2
2015-Apr-29 22:33N 35°12' E 139°46'1 1.1
2015-Apr-29 21:33N 35°13' E 139°45'2 0.2
2015-Apr-29 11:13N 35°13' E 139°43'6 8.8
2015-Apr-29 10:33N 35°10' E 139°49'3 3.0
2015-Apr-29 09:33N 35°12' E 139°46'1 1.1
2015-Apr-29 08:33N 35°12' E 139°47'2 2.2
2015-Apr-29 07:33N 35°13' E 139°45'2 2.1
2015-Apr-29 06:33N 35°12' E 139°47'2 2.2
2015-Apr-29 05:33N 35°13' E 139°45'1 1.3
2015-Apr-29 04:33N 35°12' E 139°46'0 0.5
2015-Apr-29 03:33N 35°12' E 139°46'1 0.9
2015-Apr-29 02:33N 35°11' E 139°47'2 2.1
2015-Apr-29 01:33N 35°13' E 139°45'2 2.0
2015-Apr-29 00:33N 35°12' E 139°47'2 1.9
2015-Apr-28 23:33N 35°13' E 139°45'1 1.1
2015-Apr-28 22:33N 35°12' E 139°46'1 1.2
2015-Apr-28 21:33N 35°13' E 139°45'2 0.2
2015-Apr-28 11:08N 35°13' E 139°43'6 9.9
2015-Apr-28 10:33N 35°10' E 139°49'3 3.0
2015-Apr-28 09:33N 35°12' E 139°46'1 1.1
2015-Apr-28 08:33N 35°12' E 139°47'2 1.9
2015-Apr-28 07:33N 35°12' E 139°45'2 1.8
2015-Apr-28 06:33N 35°11' E 139°47'2 2.1
2015-Apr-28 05:33N 35°13' E 139°45'1 1.5
2015-Apr-28 04:33N 35°12' E 139°46'1 0.7
2015-Apr-28 03:33N 35°12' E 139°46'1 1.1
2015-Apr-28 02:33N 35°12' E 139°47'2 2.1
2015-Apr-28 01:33N 35°13' E 139°45'2 2.4
2015-Apr-28 00:33N 35°12' E 139°47'2 2.3
2015-Apr-27 23:33N 35°13' E 139°45'1 1.0
2015-Apr-27 22:33N 35°12' E 139°46'1 1.1
2015-Apr-27 21:33N 35°13' E 139°45'2 0.1
2015-Apr-27 11:14N 35°13' E 139°43'6 8.5
2015-Apr-27 10:33N 35°10' E 139°49'3 3.2
2015-Apr-27 09:33N 35°12' E 139°46'1 1.2
2015-Apr-27 08:33N 35°12' E 139°47'2 2.0
2015-Apr-27 07:33N 35°12' E 139°45'2 2.1
2015-Apr-27 06:33N 35°12' E 139°47'2 2.3
2015-Apr-27 05:34N 35°13' E 139°45'1 1.2
2015-Apr-27 04:34N 35°12' E 139°46'0 0.3
2015-Apr-27 03:33N 35°13' E 139°46'1 1.3
2015-Apr-27 02:33N 35°12' E 139°47'2 2.2
2015-Apr-27 01:33N 35°13' E 139°45'2 2.3
2015-Apr-27 00:33N 35°11' E 139°47'2 2.2
2015-Apr-26 23:33N 35°13' E 139°45'1 1.4
2015-Apr-26 22:33N 35°12' E 139°46'1 1.3
2015-Apr-26 21:33N 35°13' E 139°45'2 0.2
2015-Apr-26 11:13N 35°13' E 139°43'6 8.7
2015-Apr-26 10:33N 35°10' E 139°49'3 3.3
2015-Apr-26 09:33N 35°12' E 139°46'2 1.9
2015-Apr-26 08:34N 35°11' E 139°48'3 2.7
2015-Apr-26 07:33N 35°13' E 139°45'2 2.3
2015-Apr-26 06:33N 35°11' E 139°47'2 2.2
2015-Apr-26 05:34N 35°13' E 139°45'1 1.2
2015-Apr-26 04:33N 35°12' E 139°46'0 0.4
2015-Apr-26 03:33N 35°12' E 139°46'1 1.3
2015-Apr-26 02:33N 35°11' E 139°47'2 2.2
2015-Apr-26 01:33N 35°13' E 139°45'2 2.1
2015-Apr-26 00:34N 35°12' E 139°47'2 2.3
2015-Apr-25 23:33N 35°13' E 139°45'1 1.5
2015-Apr-25 22:33N 35°12' E 139°46'1 1.5
2015-Apr-25 21:33N 35°13' E 139°45'1 1.3
2015-Apr-25 20:25N 35°13' E 139°43'0 0.0
2015-Apr-25 19:33N 35°13' E 139°43'0 0.0
2015-Apr-25 18:33N 35°13' E 139°43'0 0.0
2015-Apr-25 17:33N 35°13' E 139°43'0 0.0
2015-Apr-25 16:33N 35°13' E 139°43'0 0.0
2015-Apr-25 15:33N 35°13' E 139°43'0 0.0
2015-Apr-25 14:33N 35°13' E 139°43'0 0.0
2015-Apr-25 13:33N 35°13' E 139°43'0 0.0
2015-Apr-25 12:33N 35°13' E 139°43'0 0.0
2015-Apr-25 11:33N 35°13' E 139°43'6 5.8
2015-Apr-25 10:33N 35°10' E 139°49'3 3.2
2015-Apr-25 09:33N 35°12' E 139°46'1 1.1
2015-Apr-25 08:33N 35°12' E 139°47'2 2.2
2015-Apr-25 07:33N 35°13' E 139°45'2 2.5
2015-Apr-25 06:33N 35°11' E 139°47'2 2.3
2015-Apr-25 05:33N 35°12' E 139°45'1 1.0
2015-Apr-25 04:33N 35°12' E 139°46'0 0.5
2015-Apr-25 03:33N 35°12' E 139°46'1 1.4
2015-Apr-25 02:33N 35°11' E 139°47'2 2.3
2015-Apr-25 01:33N 35°13' E 139°45'2 2.2
2015-Apr-25 00:33N 35°12' E 139°47'2 2.1
2015-Apr-24 23:33N 35°13' E 139°45'1 1.2
2015-Apr-24 22:33N 35°12' E 139°46'1 1.0
2015-Apr-24 21:33N 35°12' E 139°45'2 0.2
2015-Apr-24 11:08N 35°13' E 139°43'6 9.7
2015-Apr-24 10:33N 35°10' E 139°49'3 3.3
2015-Apr-24 09:33N 35°13' E 139°46'1 1.3
2015-Apr-24 08:33N 35°12' E 139°47'2 2.2
2015-Apr-24 07:33N 35°13' E 139°45'2 2.3
2015-Apr-24 06:33N 35°12' E 139°47'2 2.1
2015-Apr-24 05:33N 35°10' E 139°49'6 5.9
2015-Apr-24 04:33N 35°13' E 139°43'0 0.2
2015-Apr-24 03:33N 35°13' E 139°43'6 5.8
2015-Apr-24 02:33N 35°10' E 139°49'4 4.3
2015-Apr-24 01:33N 35°13' E 139°45'2 2.1
2015-Apr-24 00:33N 35°12' E 139°47'  
Track history (hours):
 
Tides and Currents Weather Stations Pressure Air Temp Water Temp Dewpoint Dewpoint Depression Visibility Wind Speed Wind Dir Waves Ship Positions

Shirahamamaru

Last reported at 2015-May-03 23:33 UTC. Time now 2015-May-03 23:56 UTC.
Position N 35°13' E 139°45'.

Length 79 m; draft 3.2 m.

Type: Passenger vessel. MMSI: 431000239.

Date/timePositionNaut miles runAvg speedWind from/ knotsBaromVisibWave heightAir tempDewpointWater temp
2015-May-03 23:33N 35°13' E 139°45'1 1.2
2015-May-03 22:33N 35°12' E 139°46'1 0.9
2015-May-03 21:33N 35°12' E 139°45'1 0.2
2015-May-03 13:34N 35°13' E 139°43'2 2.4
2015-May-03 12:33N 35°12' E 139°46'2 2.4
2015-May-03 11:33N 35°11' E 139°48'5 5.2
2015-May-03 10:33N 35°13' E 139°43'6 5.9
2015-May-03 09:33N 35°10' E 139°49'6 5.9
2015-May-03 08:33N 35°13' E 139°43'6 5.9
2015-May-03 07:33N 35°10' E 139°49'6 5.9
2015-May-03 06:33N 35°13' E 139°43'6 5.8
2015-May-03 05:33N 35°10' E 139°49'6 5.6
2015-May-03 04:33N 35°13' E 139°43'5 5.0
2015-May-03 03:33N 35°11' E 139°49'5 4.8
2015-May-03 02:33N 35°13' E 139°44'4 4.3
2015-May-03 01:33N 35°11' E 139°48'4 4.4
2015-May-03 00:32N 35°13' E 139°43'3 2.6
2015-May-02 23:33N 35°12' E 139°46'2 1.7
2015-May-02 22:33N 35°13' E 139°44'2 2.4
2015-May-02 21:33N 35°12' E 139°47'1 0.1
2015-May-02 10:34N 35°12' E 139°46'2 2.2
2015-May-02 09:34N 35°11' E 139°48'4 4.0
2015-May-02 08:33N 35°13' E 139°44'5 4.8
2015-May-02 07:34N 35°10' E 139°49'5 5.1
2015-May-02 06:33N 35°13' E 139°44'3 3.0
2015-May-02 05:33N 35°12' E 139°47'2 2.1
2015-May-02 04:33N 35°13' E 139°45'3 3.0
2015-May-02 03:33N 35°11' E 139°48'4 3.9
2015-May-02 02:33N 35°13' E 139°44'4 4.1
2015-May-02 01:33N 35°11' E 139°48'4 4.2
2015-May-02 00:34N 35°13' E 139°44'2 2.4
2015-May-01 23:33N 35°11' E 139°46'3 3.0
2015-May-01 22:33N 35°10' E 139°49'5 5.0
2015-May-01 21:34N 35°13' E 139°44'1 0.1
2015-May-01 11:11N 35°13' E 139°43'6 8.9
2015-May-01 10:33N 35°10' E 139°49'3 2.7
2015-May-01 09:33N 35°12' E 139°46'1 0.9
2015-May-01 08:33N 35°12' E 139°47'2 2.0
2015-May-01 07:33N 35°13' E 139°45'2 2.0
2015-May-01 06:33N 35°12' E 139°47'2 2.3
2015-May-01 05:33N 35°13' E 139°45'1 1.3
2015-May-01 04:33N 35°12' E 139°46'0 0.5
2015-May-01 03:33N 35°12' E 139°46'1 1.4
2015-May-01 02:33N 35°11' E 139°47'2 2.3
2015-May-01 01:33N 35°13' E 139°45'2 2.2
2015-May-01 00:33N 35°12' E 139°47'2 2.3
2015-Apr-30 23:33N 35°13' E 139°45'1 1.3
2015-Apr-30 22:33N 35°12' E 139°46'1 1.2
2015-Apr-30 21:33N 35°12' E 139°45'2 0.2
2015-Apr-30 11:13N 35°13' E 139°43'6 8.7
2015-Apr-30 10:33N 35°10' E 139°49'3 3.2
2015-Apr-30 09:33N 35°12' E 139°46'1 1.1
2015-Apr-30 08:33N 35°11' E 139°47'2 2.0
2015-Apr-30 07:33N 35°13' E 139°45'2 2.0
2015-Apr-30 06:33N 35°12' E 139°47'2 2.1
2015-Apr-30 05:33N 35°13' E 139°45'1 1.2
2015-Apr-30 04:33N 35°12' E 139°46'0 0.2
2015-Apr-30 03:34N 35°12' E 139°46'1 1.2
2015-Apr-30 02:33N 35°11' E 139°47'2 2.4
2015-Apr-30 01:33N 35°13' E 139°45'2 2.3
2015-Apr-30 00:33N 35°12' E 139°47'2 2.2
2015-Apr-29 23:33N 35°13' E 139°45'1 1.2
2015-Apr-29 22:33N 35°12' E 139°46'1 1.1
2015-Apr-29 21:33N 35°13' E 139°45'2 0.2
2015-Apr-29 11:13N 35°13' E 139°43'6 8.8
2015-Apr-29 10:33N 35°10' E 139°49'3 3.0
2015-Apr-29 09:33N 35°12' E 139°46'1 1.1
2015-Apr-29 08:33N 35°12' E 139°47'2 2.2
2015-Apr-29 07:33N 35°13' E 139°45'2 2.1
2015-Apr-29 06:33N 35°12' E 139°47'2 2.2
2015-Apr-29 05:33N 35°13' E 139°45'1 1.3
2015-Apr-29 04:33N 35°12' E 139°46'0 0.5
2015-Apr-29 03:33N 35°12' E 139°46'1 0.9
2015-Apr-29 02:33N 35°11' E 139°47'2 2.1
2015-Apr-29 01:33N 35°13' E 139°45'2 2.0
2015-Apr-29 00:33N 35°12' E 139°47'2 1.9
2015-Apr-28 23:33N 35°13' E 139°45'1 1.1
2015-Apr-28 22:33N 35°12' E 139°46'1 1.2
2015-Apr-28 21:33N 35°13' E 139°45'2 0.2
2015-Apr-28 11:08N 35°13' E 139°43'6 9.9
2015-Apr-28 10:33N 35°10' E 139°49'3 3.0
2015-Apr-28 09:33N 35°12' E 139°46'1 1.1
2015-Apr-28 08:33N 35°12' E 139°47'2 1.9
2015-Apr-28 07:33N 35°12' E 139°45'2 1.8
2015-Apr-28 06:33N 35°11' E 139°47'2 2.1
2015-Apr-28 05:33N 35°13' E 139°45'1 1.5
2015-Apr-28 04:33N 35°12' E 139°46'1 0.7
2015-Apr-28 03:33N 35°12' E 139°46'1 1.1
2015-Apr-28 02:33N 35°12' E 139°47'2 2.1
2015-Apr-28 01:33N 35°13' E 139°45'2 2.4
2015-Apr-28 00:33N 35°12' E 139°47'2 2.3
2015-Apr-27 23:33N 35°13' E 139°45'1 1.0
2015-Apr-27 22:33N 35°12' E 139°46'1 1.1
2015-Apr-27 21:33N 35°13' E 139°45'2 0.1
2015-Apr-27 11:14N 35°13' E 139°43'6 8.5
2015-Apr-27 10:33N 35°10' E 139°49'3 3.2
2015-Apr-27 09:33N 35°12' E 139°46'1 1.2
2015-Apr-27 08:33N 35°12' E 139°47'2 2.0
2015-Apr-27 07:33N 35°12' E 139°45'2 2.1
2015-Apr-27 06:33N 35°12' E 139°47'2 2.3
2015-Apr-27 05:34N 35°13' E 139°45'1 1.2
2015-Apr-27 04:34N 35°12' E 139°46'0 0.3
2015-Apr-27 03:33N 35°13' E 139°46'1 1.3
2015-Apr-27 02:33N 35°12' E 139°47'2 2.2
2015-Apr-27 01:33N 35°13' E 139°45'2 2.3
2015-Apr-27 00:33N 35°11' E 139°47'2 2.2
2015-Apr-26 23:33N 35°13' E 139°45'1 1.4
2015-Apr-26 22:33N 35°12' E 139°46'1 1.3
2015-Apr-26 21:33N 35°13' E 139°45'2 0.2
2015-Apr-26 11:13N 35°13' E 139°43'6 8.7
2015-Apr-26 10:33N 35°10' E 139°49'3 3.3
2015-Apr-26 09:33N 35°12' E 139°46'2 1.9
2015-Apr-26 08:34N 35°11' E 139°48'3 2.7
2015-Apr-26 07:33N 35°13' E 139°45'2 2.3
2015-Apr-26 06:33N 35°11' E 139°47'2 2.2
2015-Apr-26 05:34N 35°13' E 139°45'1 1.2
2015-Apr-26 04:33N 35°12' E 139°46'0 0.4
2015-Apr-26 03:33N 35°12' E 139°46'1 1.3
2015-Apr-26 02:33N 35°11' E 139°47'2 2.2
2015-Apr-26 01:33N 35°13' E 139°45'2 2.1
2015-Apr-26 00:34N 35°12' E 139°47'2 2.3
2015-Apr-25 23:33N 35°13' E 139°45'1 1.5
2015-Apr-25 22:33N 35°12' E 139°46'1 1.5
2015-Apr-25 21:33N 35°13' E 139°45'1 1.3
2015-Apr-25 20:25N 35°13' E 139°43'0 0.0
2015-Apr-25 19:33N 35°13' E 139°43'0 0.0
2015-Apr-25 18:33N 35°13' E 139°43'0 0.0
2015-Apr-25 17:33N 35°13' E 139°43'0 0.0
2015-Apr-25 16:33N 35°13' E 139°43'0 0.0
2015-Apr-25 15:33N 35°13' E 139°43'0 0.0
2015-Apr-25 14:33N 35°13' E 139°43'0 0.0
2015-Apr-25 13:33N 35°13' E 139°43'0 0.0
2015-Apr-25 12:33N 35°13' E 139°43'0 0.0
2015-Apr-25 11:33N 35°13' E 139°43'6 5.8
2015-Apr-25 10:33N 35°10' E 139°49'3 3.2
2015-Apr-25 09:33N 35°12' E 139°46'1 1.1
2015-Apr-25 08:33N 35°12' E 139°47'2 2.2
2015-Apr-25 07:33N 35°13' E 139°45'2 2.5
2015-Apr-25 06:33N 35°11' E 139°47'2 2.3
2015-Apr-25 05:33N 35°12' E 139°45'1 1.0
2015-Apr-25 04:33N 35°12' E 139°46'0 0.5
2015-Apr-25 03:33N 35°12' E 139°46'1 1.4
2015-Apr-25 02:33N 35°11' E 139°47'2 2.3
2015-Apr-25 01:33N 35°13' E 139°45'2 2.2
2015-Apr-25 00:33N 35°12' E 139°47'2 2.1
2015-Apr-24 23:33N 35°13' E 139°45'1 1.2
2015-Apr-24 22:33N 35°12' E 139°46'1 1.0
2015-Apr-24 21:33N 35°12' E 139°45'2 0.2
2015-Apr-24 11:08N 35°13' E 139°43'6 9.7
2015-Apr-24 10:33N 35°10' E 139°49'3 3.3
2015-Apr-24 09:33N 35°13' E 139°46'1 1.3
2015-Apr-24 08:33N 35°12' E 139°47'2 2.2
2015-Apr-24 07:33N 35°13' E 139°45'2 2.3
2015-Apr-24 06:33N 35°12' E 139°47'2 2.1
2015-Apr-24 05:33N 35°10' E 139°49'6 5.9
2015-Apr-24 04:33N 35°13' E 139°43'0 0.2
2015-Apr-24 03:33N 35°13' E 139°43'6 5.8
2015-Apr-24 02:33N 35°10' E 139°49'4 4.3
2015-Apr-24 01:33N 35°13' E 139°45'2 2.1
2015-Apr-24 00:33N 35°12' E 139°47'  

Dump ship's entire track history